sensor_id;sensor_type;location;lat;lon;timestamp;P1;durP1;ratioP1;P2;durP2;ratioP2
46941;SDS011;32676;52.630;4.896;2023-01-28T00:01:17;3.33;;;1.90;;
46941;SDS011;32676;52.630;4.896;2023-01-28T00:03:47;4.38;;;2.08;;
46941;SDS011;32676;52.630;4.896;2023-01-28T00:06:15;3.00;;;1.67;;
46941;SDS011;32676;52.630;4.896;2023-01-28T00:08:42;12.68;;;3.08;;
46941;SDS011;32676;52.630;4.896;2023-01-28T00:11:10;5.22;;;1.48;;
46941;SDS011;32676;52.630;4.896;2023-01-28T00:13:38;3.67;;;2.00;;
46941;SDS011;32676;52.630;4.896;2023-01-28T00:16:05;4.82;;;2.47;;
46941;SDS011;32676;52.630;4.896;2023-01-28T00:18:33;4.82;;;1.98;;
46941;SDS011;32676;52.630;4.896;2023-01-28T00:21:03;7.15;;;1.88;;
46941;SDS011;32676;52.630;4.896;2023-01-28T00:23:31;3.20;;;1.77;;
46941;SDS011;32676;52.630;4.896;2023-01-28T00:26:00;2.65;;;1.55;;
46941;SDS011;32676;52.630;4.896;2023-01-28T00:28:28;4.60;;;2.05;;
46941;SDS011;32676;52.630;4.896;2023-01-28T00:30:54;2.60;;;1.63;;
46941;SDS011;32676;52.630;4.896;2023-01-28T00:33:21;3.47;;;1.80;;
46941;SDS011;32676;52.630;4.896;2023-01-28T00:35:56;4.07;;;1.55;;
46941;SDS011;32676;52.630;4.896;2023-01-28T00:38:25;2.78;;;1.42;;
46941;SDS011;32676;52.630;4.896;2023-01-28T00:40:51;2.67;;;1.42;;
46941;SDS011;32676;52.630;4.896;2023-01-28T00:43:18;2.50;;;1.20;;
46941;SDS011;32676;52.630;4.896;2023-01-28T00:45:45;4.03;;;1.90;;
46941;SDS011;32676;52.630;4.896;2023-01-28T00:48:11;6.80;;;2.00;;
46941;SDS011;32676;52.630;4.896;2023-01-28T00:50:38;3.38;;;2.03;;
46941;SDS011;32676;52.630;4.896;2023-01-28T00:53:05;6.35;;;1.80;;
46941;SDS011;32676;52.630;4.896;2023-01-28T00:55:33;4.40;;;2.00;;
46941;SDS011;32676;52.630;4.896;2023-01-28T00:57:59;4.93;;;2.38;;
46941;SDS011;32676;52.630;4.896;2023-01-28T01:00:26;7.25;;;1.85;;
46941;SDS011;32676;52.630;4.896;2023-01-28T01:02:52;12.00;;;4.03;;
46941;SDS011;32676;52.630;4.896;2023-01-28T01:05:19;4.18;;;2.35;;
46941;SDS011;32676;52.630;4.896;2023-01-28T01:07:45;11.60;;;3.67;;
46941;SDS011;32676;52.630;4.896;2023-01-28T01:10:13;13.52;;;1.77;;
46941;SDS011;32676;52.630;4.896;2023-01-28T01:12:42;4.95;;;2.50;;
46941;SDS011;32676;52.630;4.896;2023-01-28T01:15:10;2.97;;;1.55;;
46941;SDS011;32676;52.630;4.896;2023-01-28T01:17:37;2.70;;;1.58;;
46941;SDS011;32676;52.630;4.896;2023-01-28T01:20:05;3.45;;;1.83;;
46941;SDS011;32676;52.630;4.896;2023-01-28T01:22:33;2.63;;;1.45;;
46941;SDS011;32676;52.630;4.896;2023-01-28T01:25:00;4.07;;;2.20;;
46941;SDS011;32676;52.630;4.896;2023-01-28T01:27:28;4.50;;;2.15;;
46941;SDS011;32676;52.630;4.896;2023-01-28T01:29:55;3.25;;;1.92;;
46941;SDS011;32676;52.630;4.896;2023-01-28T01:32:23;3.25;;;1.73;;
46941;SDS011;32676;52.630;4.896;2023-01-28T01:34:49;10.93;;;1.75;;
46941;SDS011;32676;52.630;4.896;2023-01-28T01:37:16;4.70;;;1.17;;
46941;SDS011;32676;52.630;4.896;2023-01-28T01:39:42;4.10;;;1.00;;
46941;SDS011;32676;52.630;4.896;2023-01-28T01:42:09;2.40;;;1.00;;
46941;SDS011;32676;52.630;4.896;2023-01-28T01:44:51;3.10;;;0.90;;
46941;SDS011;32676;52.630;4.896;2023-01-28T01:47:23;7.03;;;2.58;;
46941;SDS011;32676;52.630;4.896;2023-01-28T01:49:53;4.65;;;1.10;;
46941;SDS011;32676;52.630;4.896;2023-01-28T01:52:22;3.80;;;1.85;;
46941;SDS011;32676;52.630;4.896;2023-01-28T01:54:51;3.80;;;1.75;;
46941;SDS011;32676;52.630;4.896;2023-01-28T01:57:23;2.45;;;1.35;;
46941;SDS011;32676;52.630;4.896;2023-01-28T01:59:54;2.33;;;1.55;;
46941;SDS011;32676;52.630;4.896;2023-01-28T02:02:30;5.30;;;1.80;;
46941;SDS011;32676;52.630;4.896;2023-01-28T02:05:00;4.57;;;1.25;;
46941;SDS011;32676;52.630;4.896;2023-01-28T02:07:28;3.33;;;1.77;;
46941;SDS011;32676;52.630;4.896;2023-01-28T02:09:55;6.40;;;1.95;;
46941;SDS011;32676;52.630;4.896;2023-01-28T02:12:22;3.72;;;1.80;;
46941;SDS011;32676;52.630;4.896;2023-01-28T02:14:53;2.97;;;1.58;;
46941;SDS011;32676;52.630;4.896;2023-01-28T02:17:22;8.52;;;1.80;;
46941;SDS011;32676;52.630;4.896;2023-01-28T02:19:52;8.32;;;2.13;;
46941;SDS011;32676;52.630;4.896;2023-01-28T02:25:41;5.68;;;1.77;;
46941;SDS011;32676;52.630;4.896;2023-01-28T02:28:24;3.28;;;2.10;;
46941;SDS011;32676;52.630;4.896;2023-01-28T02:31:00;35.40;;;3.83;;
46941;SDS011;32676;52.630;4.896;2023-01-28T02:33:35;5.55;;;2.28;;
46941;SDS011;32676;52.630;4.896;2023-01-28T02:36:13;3.78;;;1.83;;
46941;SDS011;32676;52.630;4.896;2023-01-28T02:38:47;3.67;;;1.95;;
46941;SDS011;32676;52.630;4.896;2023-01-28T02:41:17;5.53;;;2.58;;
46941;SDS011;32676;52.630;4.896;2023-01-28T02:43:51;4.00;;;2.92;;
46941;SDS011;32676;52.630;4.896;2023-01-28T02:46:19;3.03;;;2.10;;
46941;SDS011;32676;52.630;4.896;2023-01-28T02:49:05;5.20;;;2.20;;
46941;SDS011;32676;52.630;4.896;2023-01-28T02:57:17;3.85;;;2.28;;
46941;SDS011;32676;52.630;4.896;2023-01-28T02:59:53;4.40;;;2.40;;
46941;SDS011;32676;52.630;4.896;2023-01-28T03:02:27;3.72;;;2.10;;
46941;SDS011;32676;52.630;4.896;2023-01-28T03:05:02;5.67;;;2.03;;
46941;SDS011;32676;52.630;4.896;2023-01-28T03:07:33;7.80;;;2.50;;
46941;SDS011;32676;52.630;4.896;2023-01-28T03:10:03;3.85;;;2.05;;
46941;SDS011;32676;52.630;4.896;2023-01-28T03:12:32;5.95;;;2.85;;
46941;SDS011;32676;52.630;4.896;2023-01-28T03:15:21;5.15;;;2.20;;
46941;SDS011;32676;52.630;4.896;2023-01-28T03:18:08;4.22;;;2.30;;
46941;SDS011;32676;52.630;4.896;2023-01-28T03:20:56;3.25;;;2.05;;
46941;SDS011;32676;52.630;4.896;2023-01-28T03:23:47;4.47;;;2.47;;
46941;SDS011;32676;52.630;4.896;2023-01-28T03:26:37;4.15;;;2.30;;
46941;SDS011;32676;52.630;4.896;2023-01-28T03:29:29;7.07;;;2.53;;
46941;SDS011;32676;52.630;4.896;2023-01-28T03:32:15;4.28;;;2.13;;
46941;SDS011;32676;52.630;4.896;2023-01-28T03:35:02;7.53;;;2.40;;
46941;SDS011;32676;52.630;4.896;2023-01-28T03:37:49;3.55;;;2.50;;
46941;SDS011;32676;52.630;4.896;2023-01-28T03:40:16;4.50;;;2.83;;
46941;SDS011;32676;52.630;4.896;2023-01-28T03:42:44;8.15;;;2.53;;
46941;SDS011;32676;52.630;4.896;2023-01-28T03:45:11;4.82;;;3.08;;
46941;SDS011;32676;52.630;4.896;2023-01-28T03:47:39;4.57;;;2.30;;
46941;SDS011;32676;52.630;4.896;2023-01-28T03:50:07;3.85;;;2.45;;
46941;SDS011;32676;52.630;4.896;2023-01-28T03:52:35;3.83;;;2.42;;
46941;SDS011;32676;52.630;4.896;2023-01-28T03:55:02;4.10;;;2.45;;
46941;SDS011;32676;52.630;4.896;2023-01-28T03:57:37;4.20;;;2.80;;
46941;SDS011;32676;52.630;4.896;2023-01-28T04:00:04;5.72;;;2.88;;
46941;SDS011;32676;52.630;4.896;2023-01-28T04:02:31;3.53;;;2.40;;
46941;SDS011;32676;52.630;4.896;2023-01-28T04:05:00;5.53;;;3.08;;
46941;SDS011;32676;52.630;4.896;2023-01-28T04:07:31;5.20;;;2.67;;
46941;SDS011;32676;52.630;4.896;2023-01-28T04:09:57;5.53;;;2.40;;
46941;SDS011;32676;52.630;4.896;2023-01-28T04:12:24;4.38;;;2.97;;
46941;SDS011;32676;52.630;4.896;2023-01-28T04:14:50;5.25;;;3.08;;
46941;SDS011;32676;52.630;4.896;2023-01-28T04:17:17;8.40;;;2.88;;
46941;SDS011;32676;52.630;4.896;2023-01-28T04:19:43;7.15;;;3.13;;
46941;SDS011;32676;52.630;4.896;2023-01-28T04:22:11;5.50;;;2.95;;
46941;SDS011;32676;52.630;4.896;2023-01-28T04:24:37;3.88;;;2.22;;
46941;SDS011;32676;52.630;4.896;2023-01-28T04:27:04;4.40;;;3.20;;
46941;SDS011;32676;52.630;4.896;2023-01-28T04:29:30;3.92;;;2.33;;
46941;SDS011;32676;52.630;4.896;2023-01-28T04:31:57;8.68;;;2.47;;
46941;SDS011;32676;52.630;4.896;2023-01-28T04:34:24;4.78;;;2.65;;
46941;SDS011;32676;52.630;4.896;2023-01-28T04:36:50;8.73;;;2.95;;
46941;SDS011;32676;52.630;4.896;2023-01-28T04:39:18;3.97;;;2.53;;
46941;SDS011;32676;52.630;4.896;2023-01-28T04:41:44;4.60;;;2.92;;
46941;SDS011;32676;52.630;4.896;2023-01-28T04:44:11;6.13;;;2.70;;
46941;SDS011;32676;52.630;4.896;2023-01-28T04:46:37;4.82;;;2.60;;
46941;SDS011;32676;52.630;4.896;2023-01-28T04:49:04;5.45;;;2.55;;
46941;SDS011;32676;52.630;4.896;2023-01-28T04:51:30;8.95;;;2.90;;
46941;SDS011;32676;52.630;4.896;2023-01-28T04:53:57;5.18;;;2.60;;
46941;SDS011;32676;52.630;4.896;2023-01-28T04:56:25;4.65;;;2.45;;
46941;SDS011;32676;52.630;4.896;2023-01-28T04:58:51;7.03;;;2.58;;
46941;SDS011;32676;52.630;4.896;2023-01-28T05:01:18;6.25;;;3.00;;
46941;SDS011;32676;52.630;4.896;2023-01-28T05:03:44;4.45;;;2.40;;
46941;SDS011;32676;52.630;4.896;2023-01-28T05:06:11;4.60;;;2.92;;
46941;SDS011;32676;52.630;4.896;2023-01-28T05:08:37;11.40;;;4.95;;
46941;SDS011;32676;52.630;4.896;2023-01-28T05:11:04;7.38;;;2.28;;
46941;SDS011;32676;52.630;4.896;2023-01-28T05:13:31;5.10;;;3.05;;
46941;SDS011;32676;52.630;4.896;2023-01-28T05:15:58;4.45;;;2.75;;
46941;SDS011;32676;52.630;4.896;2023-01-28T05:18:24;5.93;;;2.50;;
46941;SDS011;32676;52.630;4.896;2023-01-28T05:20:51;5.60;;;2.55;;
46941;SDS011;32676;52.630;4.896;2023-01-28T05:23:17;5.00;;;2.53;;
46941;SDS011;32676;52.630;4.896;2023-01-28T05:25:44;8.57;;;3.05;;
46941;SDS011;32676;52.630;4.896;2023-01-28T05:28:11;4.75;;;2.88;;
46941;SDS011;32676;52.630;4.896;2023-01-28T05:30:38;4.72;;;2.55;;
46941;SDS011;32676;52.630;4.896;2023-01-28T05:33:05;7.10;;;2.60;;
46941;SDS011;32676;52.630;4.896;2023-01-28T05:35:32;5.78;;;3.08;;
46941;SDS011;32676;52.630;4.896;2023-01-28T05:38:00;4.15;;;2.78;;
46941;SDS011;32676;52.630;4.896;2023-01-28T05:40:26;4.93;;;3.08;;
46941;SDS011;32676;52.630;4.896;2023-01-28T05:42:53;4.25;;;2.17;;
46941;SDS011;32676;52.630;4.896;2023-01-28T05:45:19;6.35;;;3.22;;
46941;SDS011;32676;52.630;4.896;2023-01-28T05:47:47;6.20;;;3.33;;
46941;SDS011;32676;52.630;4.896;2023-01-28T05:50:14;5.68;;;2.90;;
46941;SDS011;32676;52.630;4.896;2023-01-28T05:52:40;4.82;;;2.90;;
46941;SDS011;32676;52.630;4.896;2023-01-28T05:55:07;4.68;;;2.60;;
46941;SDS011;32676;52.630;4.896;2023-01-28T05:57:35;5.95;;;2.63;;
46941;SDS011;32676;52.630;4.896;2023-01-28T06:00:02;6.30;;;2.78;;
46941;SDS011;32676;52.630;4.896;2023-01-28T06:02:29;5.15;;;2.75;;
46941;SDS011;32676;52.630;4.896;2023-01-28T06:04:57;4.72;;;2.70;;
46941;SDS011;32676;52.630;4.896;2023-01-28T06:07:23;12.25;;;4.10;;
46941;SDS011;32676;52.630;4.896;2023-01-28T06:09:50;3.97;;;2.28;;
46941;SDS011;32676;52.630;4.896;2023-01-28T06:12:16;4.78;;;2.90;;
46941;SDS011;32676;52.630;4.896;2023-01-28T06:14:43;5.00;;;2.45;;
46941;SDS011;32676;52.630;4.896;2023-01-28T06:17:09;3.80;;;2.35;;
46941;SDS011;32676;52.630;4.896;2023-01-28T06:19:36;7.13;;;2.40;;
46941;SDS011;32676;52.630;4.896;2023-01-28T06:22:03;4.70;;;2.35;;
46941;SDS011;32676;52.630;4.896;2023-01-28T06:24:30;5.03;;;2.45;;
46941;SDS011;32676;52.630;4.896;2023-01-28T06:26:56;4.20;;;2.55;;
46941;SDS011;32676;52.630;4.896;2023-01-28T06:29:23;3.78;;;2.22;;
46941;SDS011;32676;52.630;4.896;2023-01-28T06:31:49;3.42;;;1.73;;
46941;SDS011;32676;52.630;4.896;2023-01-28T06:34:16;4.65;;;2.05;;
46941;SDS011;32676;52.630;4.896;2023-01-28T06:36:43;5.35;;;3.00;;
46941;SDS011;32676;52.630;4.896;2023-01-28T06:39:11;6.43;;;2.70;;
46941;SDS011;32676;52.630;4.896;2023-01-28T06:41:37;4.82;;;2.03;;
46941;SDS011;32676;52.630;4.896;2023-01-28T06:44:04;4.03;;;2.00;;
46941;SDS011;32676;52.630;4.896;2023-01-28T06:46:30;5.05;;;2.85;;
46941;SDS011;32676;52.630;4.896;2023-01-28T06:48:57;8.68;;;2.53;;
46941;SDS011;32676;52.630;4.896;2023-01-28T06:51:23;7.55;;;2.65;;
46941;SDS011;32676;52.630;4.896;2023-01-28T06:53:50;3.88;;;2.25;;
46941;SDS011;32676;52.630;4.896;2023-01-28T06:56:17;4.40;;;2.17;;
46941;SDS011;32676;52.630;4.896;2023-01-28T06:58:44;9.63;;;2.35;;
46941;SDS011;32676;52.630;4.896;2023-01-28T07:01:10;5.57;;;2.03;;
46941;SDS011;32676;52.630;4.896;2023-01-28T07:03:37;6.82;;;2.80;;
46941;SDS011;32676;52.630;4.896;2023-01-28T07:06:04;5.65;;;2.78;;
46941;SDS011;32676;52.630;4.896;2023-01-28T07:08:30;5.63;;;3.05;;
46941;SDS011;32676;52.630;4.896;2023-01-28T07:10:57;6.85;;;2.85;;
46941;SDS011;32676;52.630;4.896;2023-01-28T07:13:25;6.82;;;2.70;;
46941;SDS011;32676;52.630;4.896;2023-01-28T07:15:51;4.95;;;2.92;;
46941;SDS011;32676;52.630;4.896;2023-01-28T07:18:18;3.72;;;1.90;;
46941;SDS011;32676;52.630;4.896;2023-01-28T07:20:44;4.68;;;2.60;;
46941;SDS011;32676;52.630;4.896;2023-01-28T07:23:11;6.22;;;3.20;;
46941;SDS011;32676;52.630;4.896;2023-01-28T07:25:37;4.22;;;2.42;;
46941;SDS011;32676;52.630;4.896;2023-01-28T07:28:04;5.65;;;2.55;;
46941;SDS011;32676;52.630;4.896;2023-01-28T07:30:32;5.45;;;2.53;;
46941;SDS011;32676;52.630;4.896;2023-01-28T07:32:58;5.85;;;3.10;;
46941;SDS011;32676;52.630;4.896;2023-01-28T07:35:25;7.50;;;3.08;;
46941;SDS011;32676;52.630;4.896;2023-01-28T07:37:53;6.55;;;3.13;;
46941;SDS011;32676;52.630;4.896;2023-01-28T07:40:20;5.93;;;3.03;;
46941;SDS011;32676;52.630;4.896;2023-01-28T07:42:46;7.65;;;2.35;;
46941;SDS011;32676;52.630;4.896;2023-01-28T07:45:13;6.88;;;3.13;;
46941;SDS011;32676;52.630;4.896;2023-01-28T07:47:42;4.90;;;2.65;;
46941;SDS011;32676;52.630;4.896;2023-01-28T07:50:09;5.97;;;3.47;;
46941;SDS011;32676;52.630;4.896;2023-01-28T07:52:36;9.95;;;3.63;;
46941;SDS011;32676;52.630;4.896;2023-01-28T07:55:08;10.32;;;4.75;;
46941;SDS011;32676;52.630;4.896;2023-01-28T07:57:35;5.22;;;2.72;;
46941;SDS011;32676;52.630;4.896;2023-01-28T08:00:02;12.15;;;3.92;;
46941;SDS011;32676;52.630;4.896;2023-01-28T08:02:29;7.75;;;3.45;;
46941;SDS011;32676;52.630;4.896;2023-01-28T08:04:57;9.32;;;3.72;;
46941;SDS011;32676;52.630;4.896;2023-01-28T08:07:26;8.10;;;3.05;;
46941;SDS011;32676;52.630;4.896;2023-01-28T08:09:53;6.05;;;3.47;;
46941;SDS011;32676;52.630;4.896;2023-01-28T08:12:19;7.07;;;3.75;;
46941;SDS011;32676;52.630;4.896;2023-01-28T08:14:45;6.07;;;2.95;;
46941;SDS011;32676;52.630;4.896;2023-01-28T08:17:12;6.20;;;3.35;;
46941;SDS011;32676;52.630;4.896;2023-01-28T08:19:38;6.60;;;4.00;;
46941;SDS011;32676;52.630;4.896;2023-01-28T08:22:06;10.32;;;5.75;;
46941;SDS011;32676;52.630;4.896;2023-01-28T08:24:33;12.65;;;6.10;;
46941;SDS011;32676;52.630;4.896;2023-01-28T08:26:59;17.58;;;6.88;;
46941;SDS011;32676;52.630;4.896;2023-01-28T08:29:26;14.77;;;6.05;;
46941;SDS011;32676;52.630;4.896;2023-01-28T08:31:52;8.40;;;4.30;;
46941;SDS011;32676;52.630;4.896;2023-01-28T08:34:19;7.50;;;3.45;;
46941;SDS011;32676;52.630;4.896;2023-01-28T08:36:45;9.18;;;4.50;;
46941;SDS011;32676;52.630;4.896;2023-01-28T08:39:13;6.60;;;3.97;;
46941;SDS011;32676;52.630;4.896;2023-01-28T08:41:39;10.00;;;4.07;;
46941;SDS011;32676;52.630;4.896;2023-01-28T08:44:06;6.40;;;4.05;;
46941;SDS011;32676;52.630;4.896;2023-01-28T08:46:32;7.53;;;3.75;;
46941;SDS011;32676;52.630;4.896;2023-01-28T08:48:59;7.40;;;4.72;;
46941;SDS011;32676;52.630;4.896;2023-01-28T08:51:25;5.95;;;3.00;;
46941;SDS011;32676;52.630;4.896;2023-01-28T08:53:52;8.82;;;4.25;;
46941;SDS011;32676;52.630;4.896;2023-01-28T08:56:19;5.68;;;2.85;;
46941;SDS011;32676;52.630;4.896;2023-01-28T08:58:46;10.00;;;4.25;;
46941;SDS011;32676;52.630;4.896;2023-01-28T09:01:13;5.22;;;2.80;;
46941;SDS011;32676;52.630;4.896;2023-01-28T09:03:39;7.53;;;2.97;;
46941;SDS011;32676;52.630;4.896;2023-01-28T09:06:06;9.00;;;2.75;;
46941;SDS011;32676;52.630;4.896;2023-01-28T09:08:33;5.53;;;3.25;;
46941;SDS011;32676;52.630;4.896;2023-01-28T09:11:00;6.97;;;2.72;;
46941;SDS011;32676;52.630;4.896;2023-01-28T09:13:28;7.63;;;3.05;;
46941;SDS011;32676;52.630;4.896;2023-01-28T09:15:55;5.13;;;2.33;;
46941;SDS011;32676;52.630;4.896;2023-01-28T09:18:21;5.43;;;2.92;;
46941;SDS011;32676;52.630;4.896;2023-01-28T09:20:48;3.42;;;2.03;;
46941;SDS011;32676;52.630;4.896;2023-01-28T09:23:14;6.22;;;3.35;;
46941;SDS011;32676;52.630;4.896;2023-01-28T09:25:41;4.45;;;2.78;;
46941;SDS011;32676;52.630;4.896;2023-01-28T09:28:08;8.23;;;2.78;;
46941;SDS011;32676;52.630;4.896;2023-01-28T09:30:35;4.82;;;3.13;;
46941;SDS011;32676;52.630;4.896;2023-01-28T09:33:03;6.15;;;2.45;;
46941;SDS011;32676;52.630;4.896;2023-01-28T09:35:31;6.65;;;3.25;;
46941;SDS011;32676;52.630;4.896;2023-01-28T09:37:59;4.95;;;2.83;;
46941;SDS011;32676;52.630;4.896;2023-01-28T09:40:28;8.10;;;3.03;;
46941;SDS011;32676;52.630;4.896;2023-01-28T09:43:05;4.20;;;1.92;;
46941;SDS011;32676;52.630;4.896;2023-01-28T09:45:51;6.70;;;3.20;;
46941;SDS011;32676;52.630;4.896;2023-01-28T09:48:20;3.83;;;2.22;;
46941;SDS011;32676;52.630;4.896;2023-01-28T09:50:50;4.45;;;2.30;;
46941;SDS011;32676;52.630;4.896;2023-01-28T09:53:22;4.50;;;2.00;;
46941;SDS011;32676;52.630;4.896;2023-01-28T09:55:52;3.85;;;2.17;;
46941;SDS011;32676;52.630;4.896;2023-01-28T09:58:22;4.68;;;2.08;;
46941;SDS011;32676;52.630;4.896;2023-01-28T10:00:52;7.43;;;1.60;;
46941;SDS011;32676;52.630;4.896;2023-01-28T10:03:30;3.95;;;2.17;;
46941;SDS011;32676;52.630;4.896;2023-01-28T10:06:18;4.65;;;2.17;;
46941;SDS011;32676;52.630;4.896;2023-01-28T10:09:05;5.75;;;1.90;;
46941;SDS011;32676;52.630;4.896;2023-01-28T10:11:47;5.75;;;2.97;;
46941;SDS011;32676;52.630;4.896;2023-01-28T10:14:26;4.10;;;1.98;;
46941;SDS011;32676;52.630;4.896;2023-01-28T10:17:09;7.70;;;1.85;;
46941;SDS011;32676;52.630;4.896;2023-01-28T10:19:41;4.65;;;1.85;;
46941;SDS011;32676;52.630;4.896;2023-01-28T10:22:12;6.45;;;2.10;;
46941;SDS011;32676;52.630;4.896;2023-01-28T10:24:44;3.75;;;1.77;;
46941;SDS011;32676;52.630;4.896;2023-01-28T10:27:16;4.72;;;1.73;;
46941;SDS011;32676;52.630;4.896;2023-01-28T10:29:45;3.60;;;2.13;;
46941;SDS011;32676;52.630;4.896;2023-01-28T10:32:16;4.32;;;1.58;;
46941;SDS011;32676;52.630;4.896;2023-01-28T10:34:49;3.53;;;1.50;;
46941;SDS011;32676;52.630;4.896;2023-01-28T10:37:17;4.93;;;1.50;;
46941;SDS011;32676;52.630;4.896;2023-01-28T10:39:46;6.97;;;1.40;;
46941;SDS011;32676;52.630;4.896;2023-01-28T10:42:15;5.53;;;1.77;;
46941;SDS011;32676;52.630;4.896;2023-01-28T10:44:47;5.22;;;1.60;;
46941;SDS011;32676;52.630;4.896;2023-01-28T10:47:19;5.63;;;1.67;;
46941;SDS011;32676;52.630;4.896;2023-01-28T10:49:54;4.00;;;1.50;;
46941;SDS011;32676;52.630;4.896;2023-01-28T10:52:23;4.07;;;2.58;;
46941;SDS011;32676;52.630;4.896;2023-01-28T10:54:57;4.13;;;2.20;;
46941;SDS011;32676;52.630;4.896;2023-01-28T10:57:24;4.93;;;1.85;;
46941;SDS011;32676;52.630;4.896;2023-01-28T10:59:51;7.53;;;2.03;;
46941;SDS011;32676;52.630;4.896;2023-01-28T11:02:25;3.47;;;1.88;;
46941;SDS011;32676;52.630;4.896;2023-01-28T11:05:04;5.18;;;1.33;;
46941;SDS011;32676;52.630;4.896;2023-01-28T11:07:32;2.83;;;1.15;;
46941;SDS011;32676;52.630;4.896;2023-01-28T11:09:59;3.05;;;1.48;;
46941;SDS011;32676;52.630;4.896;2023-01-28T11:12:27;3.60;;;1.52;;
46941;SDS011;32676;52.630;4.896;2023-01-28T11:14:55;5.18;;;2.25;;
46941;SDS011;32676;52.630;4.896;2023-01-28T11:17:25;6.93;;;2.22;;
46941;SDS011;32676;52.630;4.896;2023-01-28T11:19:54;5.07;;;2.55;;
46941;SDS011;32676;52.630;4.896;2023-01-28T11:22:23;4.85;;;1.77;;
46941;SDS011;32676;52.630;4.896;2023-01-28T11:24:56;6.20;;;1.63;;
46941;SDS011;32676;52.630;4.896;2023-01-28T11:27:26;9.95;;;1.95;;
46941;SDS011;32676;52.630;4.896;2023-01-28T11:29:55;7.18;;;1.55;;
46941;SDS011;32676;52.630;4.896;2023-01-28T11:32:27;4.50;;;1.45;;
46941;SDS011;32676;52.630;4.896;2023-01-28T11:34:55;6.57;;;1.38;;
46941;SDS011;32676;52.630;4.896;2023-01-28T11:37:23;2.90;;;1.23;;
46941;SDS011;32676;52.630;4.896;2023-01-28T11:39:59;3.58;;;0.98;;
46941;SDS011;32676;52.630;4.896;2023-01-28T11:42:27;3.22;;;1.13;;
46941;SDS011;32676;52.630;4.896;2023-01-28T11:44:55;5.22;;;1.27;;
46941;SDS011;32676;52.630;4.896;2023-01-28T11:47:29;5.80;;;1.33;;
46941;SDS011;32676;52.630;4.896;2023-01-28T11:50:12;6.57;;;0.98;;
46941;SDS011;32676;52.630;4.896;2023-01-28T11:52:57;2.50;;;0.98;;
46941;SDS011;32676;52.630;4.896;2023-01-28T11:55:36;10.55;;;1.52;;
46941;SDS011;32676;52.630;4.896;2023-01-28T11:58:13;2.50;;;1.25;;
46941;SDS011;32676;52.630;4.896;2023-01-28T12:00:48;4.30;;;1.25;;
46941;SDS011;32676;52.630;4.896;2023-01-28T12:03:32;7.40;;;1.88;;
46941;SDS011;32676;52.630;4.896;2023-01-28T12:06:11;4.05;;;1.02;;
46941;SDS011;32676;52.630;4.896;2023-01-28T12:08:52;2.67;;;1.02;;
46941;SDS011;32676;52.630;4.896;2023-01-28T12:11:26;5.82;;;1.45;;
46941;SDS011;32676;52.630;4.896;2023-01-28T12:14:21;2.00;;;1.15;;
46941;SDS011;32676;52.630;4.896;2023-01-28T12:16:56;4.38;;;1.10;;
46941;SDS011;32676;52.630;4.896;2023-01-28T12:19:47;4.40;;;1.42;;
46941;SDS011;32676;52.630;4.896;2023-01-28T12:22:23;7.32;;;1.60;;
46941;SDS011;32676;52.630;4.896;2023-01-28T12:25:11;7.10;;;1.55;;
46941;SDS011;32676;52.630;4.896;2023-01-28T12:27:46;4.38;;;1.42;;
46941;SDS011;32676;52.630;4.896;2023-01-28T12:30:28;9.50;;;1.70;;
46941;SDS011;32676;52.630;4.896;2023-01-28T12:33:11;4.90;;;1.58;;
46941;SDS011;32676;52.630;4.896;2023-01-28T12:35:58;7.82;;;2.35;;
46941;SDS011;32676;52.630;4.896;2023-01-28T12:38:35;2.33;;;0.85;;
46941;SDS011;32676;52.630;4.896;2023-01-28T12:41:09;7.97;;;1.45;;
46941;SDS011;32676;52.630;4.896;2023-01-28T12:43:47;8.57;;;1.77;;
46941;SDS011;32676;52.630;4.896;2023-01-28T12:46:22;13.68;;;1.33;;
46941;SDS011;32676;52.630;4.896;2023-01-28T12:48:56;5.47;;;0.90;;
46941;SDS011;32676;52.630;4.896;2023-01-28T12:51:31;6.90;;;1.35;;
46941;SDS011;32676;52.630;4.896;2023-01-28T12:54:03;35.83;;;1.73;;
46941;SDS011;32676;52.630;4.896;2023-01-28T12:56:38;11.07;;;2.63;;
46941;SDS011;32676;52.630;4.896;2023-01-28T12:59:10;3.10;;;0.98;;
46941;SDS011;32676;52.630;4.896;2023-01-28T13:01:40;14.50;;;1.67;;
46941;SDS011;32676;52.630;4.896;2023-01-28T13:04:11;18.27;;;1.45;;
46941;SDS011;32676;52.630;4.896;2023-01-28T13:06:47;9.10;;;1.33;;
46941;SDS011;32676;52.630;4.896;2023-01-28T13:09:21;8.70;;;3.03;;
46941;SDS011;32676;52.630;4.896;2023-01-28T13:11:51;4.15;;;1.45;;
46941;SDS011;32676;52.630;4.896;2023-01-28T13:14:23;3.83;;;0.60;;
46941;SDS011;32676;52.630;4.896;2023-01-28T13:16:53;2.42;;;0.73;;
46941;SDS011;32676;52.630;4.896;2023-01-28T13:19:23;6.22;;;0.50;;
46941;SDS011;32676;52.630;4.896;2023-01-28T13:22:21;7.72;;;1.95;;
46941;SDS011;32676;52.630;4.896;2023-01-28T13:24:54;6.50;;;1.55;;
46941;SDS011;32676;52.630;4.896;2023-01-28T13:27:22;1.58;;;0.50;;
46941;SDS011;32676;52.630;4.896;2023-01-28T13:29:59;9.52;;;0.90;;
46941;SDS011;32676;52.630;4.896;2023-01-28T13:32:31;1.45;;;0.50;;
46941;SDS011;32676;52.630;4.896;2023-01-28T13:35:00;7.50;;;1.25;;
46941;SDS011;32676;52.630;4.896;2023-01-28T13:37:32;1.88;;;0.40;;
46941;SDS011;32676;52.630;4.896;2023-01-28T13:40:02;2.05;;;0.75;;
46941;SDS011;32676;52.630;4.896;2023-01-28T13:42:33;1.50;;;0.40;;
46941;SDS011;32676;52.630;4.896;2023-01-28T13:45:18;2.30;;;0.45;;
46941;SDS011;32676;52.630;4.896;2023-01-28T13:47:48;2.95;;;0.68;;
46941;SDS011;32676;52.630;4.896;2023-01-28T13:50:17;2.80;;;0.70;;
46941;SDS011;32676;52.630;4.896;2023-01-28T13:52:50;13.57;;;1.50;;
46941;SDS011;32676;52.630;4.896;2023-01-28T13:55:22;3.58;;;1.05;;
46941;SDS011;32676;52.630;4.896;2023-01-28T14:00:44;8.07;;;0.55;;
46941;SDS011;32676;52.630;4.896;2023-01-28T14:06:51;11.25;;;0.70;;
46941;SDS011;32676;52.630;4.896;2023-01-28T14:09:40;4.45;;;0.85;;
46941;SDS011;32676;52.630;4.896;2023-01-28T14:15:33;9.63;;;2.50;;
46941;SDS011;32676;52.630;4.896;2023-01-28T14:18:25;4.28;;;1.40;;
46941;SDS011;32676;52.630;4.896;2023-01-28T14:20:54;4.10;;;1.45;;
46941;SDS011;32676;52.630;4.896;2023-01-28T14:23:23;4.50;;;1.58;;
46941;SDS011;32676;52.630;4.896;2023-01-28T14:25:58;4.25;;;1.25;;
46941;SDS011;32676;52.630;4.896;2023-01-28T14:28:44;4.45;;;0.88;;
46941;SDS011;32676;52.630;4.896;2023-01-28T14:31:23;5.28;;;0.80;;
46941;SDS011;32676;52.630;4.896;2023-01-28T14:33:52;10.15;;;3.20;;
46941;SDS011;32676;52.630;4.896;2023-01-28T14:36:19;3.92;;;1.33;;
46941;SDS011;32676;52.630;4.896;2023-01-28T14:38:46;3.25;;;0.70;;
46941;SDS011;32676;52.630;4.896;2023-01-28T14:41:19;4.78;;;0.73;;
46941;SDS011;32676;52.630;4.896;2023-01-28T14:43:57;5.22;;;1.27;;
46941;SDS011;32676;52.630;4.896;2023-01-28T14:46:28;7.13;;;0.75;;
46941;SDS011;32676;52.630;4.896;2023-01-28T14:49:07;3.28;;;0.55;;
46941;SDS011;32676;52.630;4.896;2023-01-28T14:52:00;6.20;;;0.82;;
46941;SDS011;32676;52.630;4.896;2023-01-28T14:54:44;11.93;;;2.13;;
46941;SDS011;32676;52.630;4.896;2023-01-28T14:57:27;5.82;;;1.63;;
46941;SDS011;32676;52.630;4.896;2023-01-28T15:00:15;5.50;;;0.85;;
46941;SDS011;32676;52.630;4.896;2023-01-28T15:02:45;6.25;;;1.25;;
46941;SDS011;32676;52.630;4.896;2023-01-28T15:05:14;6.45;;;1.75;;
46941;SDS011;32676;52.630;4.896;2023-01-28T15:07:42;6.50;;;1.65;;
46941;SDS011;32676;52.630;4.896;2023-01-28T15:10:13;4.88;;;1.50;;
46941;SDS011;32676;52.630;4.896;2023-01-28T15:12:43;12.55;;;1.80;;
46941;SDS011;32676;52.630;4.896;2023-01-28T15:15:16;3.15;;;1.15;;
46941;SDS011;32676;52.630;4.896;2023-01-28T15:17:47;5.50;;;0.90;;
46941;SDS011;32676;52.630;4.896;2023-01-28T15:20:15;6.35;;;1.80;;
46941;SDS011;32676;52.630;4.896;2023-01-28T15:22:44;2.08;;;0.75;;
46941;SDS011;32676;52.630;4.896;2023-01-28T15:25:17;4.60;;;0.70;;